メインページ
METAR-TAF:

METAR-TAF

空港 :

松本空港

松本, 日本

緯度: 36-10N, 経度: 137-56E, 海抜: 668m

現時点の気象観測

当レポートは4時間56分前の07:00(UTC)に作成
北西の風 10kt、西/北西からの間で変化する
気温 20°C
湿度 32%
気圧 1018 hPa
視程10km以上
高度6000ftの雲はほとんどない
雲は散在している

METAR: RJAF 200700Z 32010KT 300V360 9999 FEW060 SCT/// 20/03 Q1018

時間: 20:56 (11:56 UTC)


TAF: 見つかりません

4,000以上の空港の気象観測と天気予報(METAR報とTAF報)

利用可能な観測所は地図上に黄色い丸と赤い丸で示す。

丸の上にカーソルを重ねると観測所名を参照できる。

次にクリックすると気象観測と天気予報を参照できる。

マップの切り替え:黒色「×」印の緑ボタンをクリックして拡大、「-」印の緑ボタンをクリックして縮小、緑色の三角印をクリックして隣りの地図に切り替え


METAR-TAF: